White Pigeon, Iowa
Current Conditions -  °F | °C
As of 6:35 PM on Wednesday 22 Oct 2014 (Local Time) from KOOA Reporting Station
Clear Clear  
Wind Chill: 54°   Ceiling: Unl
Heat Index: 54°   Visibility: 10mi
Dew Point: 41°   Wind: 8mph
Humidity: 62%   Direction: 130°SE
Pressure: 30.16"   Gusts: NA
Location:  41.5522°N, 92.1189°W
Report Text: KOOA 222335Z AUTO 13007KT 10SM CLR 12/05 A3016 RMK AO2 T01220052
Loading
Personal Weather Stations






























Interactive Weather Map
Tropical Storm Tracking
New forecast layout! Learn more

10-Day Weather Forecast

Advertisements
Track Severe Weather on mobile